Time;durP1;ratioP1;P1;durP2;ratioP2;P2;SDS_P1;SDS_P2;PMS_P1;PMS_P2;Temp;Humidity;BMP_temperature;BMP_pressure;BME280_temperature;BME280_humidity;BME280_pressure;Samples;Min_cycle;Max_cycle;Signal;HPM_P1;HPM_P2
2023/08/08 00:01:59;;;;;;;5.57;2.28;;;;;;;;;;6302222;22;20309;-86
2023/08/08 00:04:25;;;;;;;2.83;2.25;;;;;;;;;;6302191;22;20007;-86
2023/08/08 00:06:51;;;;;;;2.33;1.80;;;;;;;;;;6301774;22;20352;-86
2023/08/08 00:09:17;;;;;;;2.53;1.90;;;;;;;;;;6301794;22;20022;-86
2023/08/08 00:11:43;;;;;;;3.63;1.58;;;;;;;;;;6302424;22;20098;-86
2023/08/08 00:14:09;;;;;;;3.33;1.83;;;;;;;;;;6273151;22;20047;-86
2023/08/08 00:16:35;;;;;;;4.20;2.30;;;;;;;;;;6301975;22;20437;-86
2023/08/08 00:19:01;;;;;;;3.50;2.10;;;;;;;;;;6273893;22;20011;-86
2023/08/08 00:21:27;;;;;;;2.83;1.80;;;;;;;;;;6302968;22;20379;-86
2023/08/08 00:23:53;;;;;;;3.42;2.63;;;;;;;;;;6302376;22;20007;-86
2023/08/08 00:26:19;;;;;;;3.25;2.22;;;;;;;;;;6302027;22;20012;-86
2023/08/08 00:28:45;;;;;;;2.58;2.35;;;;;;;;;;6301790;22;20058;-85
2023/08/08 00:31:11;;;;;;;2.50;1.70;;;;;;;;;;6301615;22;20057;-86
2023/08/08 00:33:37;;;;;;;4.57;1.95;;;;;;;;;;6302618;22;20011;-85
2023/08/08 00:36:03;;;;;;;2.35;1.80;;;;;;;;;;6301858;22;20023;-85
2023/08/08 00:38:29;;;;;;;4.13;2.40;;;;;;;;;;6273863;22;20031;-86
2023/08/08 00:40:55;;;;;;;3.28;2.00;;;;;;;;;;6274018;22;20055;-86
2023/08/08 00:43:21;;;;;;;4.50;2.28;;;;;;;;;;6274094;22;20470;-86
2023/08/08 00:45:47;;;;;;;2.63;1.98;;;;;;;;;;6302138;22;20086;-85
2023/08/08 00:48:13;;;;;;;4.45;2.15;;;;;;;;;;6273447;22;20072;-86
2023/08/08 00:50:44;;;;;;;2.95;2.10;;;;;;;;;;6303104;22;20011;-86
2023/08/08 00:53:10;;;;;;;3.58;2.10;;;;;;;;;;6274545;22;20015;-86
2023/08/08 00:55:36;;;;;;;3.35;2.30;;;;;;;;;;6275543;22;20011;-85
2023/08/08 00:58:02;;;;;;;4.03;2.15;;;;;;;;;;6274168;22;20090;-86
2023/08/08 01:00:28;;;;;;;3.17;1.92;;;;;;;;;;6274837;22;20027;-86
2023/08/08 01:02:54;;;;;;;2.78;2.05;;;;;;;;;;6302396;22;20007;-86
2023/08/08 01:05:21;;;;;;;3.28;2.28;;;;;;;;;;6302489;22;20011;-85
2023/08/08 01:07:53;;;;;;;3.13;2.20;;;;;;;;;;6302493;22;20086;-85
2023/08/08 01:10:27;;;;;;;3.13;2.25;;;;;;;;;;6302280;22;20015;-86
2023/08/08 01:12:54;;;;;;;4.15;2.28;;;;;;;;;;6274271;22;20067;-85
2023/08/08 01:15:21;;;;;;;2.63;2.13;;;;;;;;;;6301843;22;20015;-85
2023/08/08 01:17:48;;;;;;;2.83;2.13;;;;;;;;;;6302009;22;20027;-86
2023/08/08 01:20:16;;;;;;;4.22;1.77;;;;;;;;;;6303829;22;20022;-86
2023/08/08 01:23:01;;;;;;;3.58;2.13;;;;;;;;;;6304364;22;20018;-86
2023/08/08 01:25:27;;;;;;;3.38;2.30;;;;;;;;;;6303461;22;20011;-86
2023/08/08 01:27:53;;;;;;;3.25;2.20;;;;;;;;;;6275144;22;20022;-86
2023/08/08 01:30:19;;;;;;;3.15;2.10;;;;;;;;;;6276333;22;20045;-86
2023/08/08 01:32:45;;;;;;;2.95;2.05;;;;;;;;;;6276940;22;20326;-87
2023/08/08 01:35:11;;;;;;;4.38;2.53;;;;;;;;;;6274958;22;20015;-86
2023/08/08 01:37:41;;;;;;;4.00;2.13;;;;;;;;;;6304293;22;20054;-86
2023/08/08 01:40:09;;;;;;;3.30;2.20;;;;;;;;;;6302668;22;20080;-86
2023/08/08 01:42:35;;;;;;;4.75;2.15;;;;;;;;;;6275714;22;20072;-86
2023/08/08 01:45:02;;;;;;;3.17;2.47;;;;;;;;;;6303699;22;20060;-86
2023/08/08 01:47:28;;;;;;;2.90;1.83;;;;;;;;;;6302718;22;20011;-86
2023/08/08 01:49:54;;;;;;;3.97;2.55;;;;;;;;;;6302580;22;20007;-86
2023/08/08 01:52:22;;;;;;;3.40;2.60;;;;;;;;;;6275706;22;20015;-86
2023/08/08 01:54:48;;;;;;;2.17;1.95;;;;;;;;;;6304253;22;20455;-86
2023/08/08 01:57:14;;;;;;;4.35;2.40;;;;;;;;;;6303166;22;20565;-86
2023/08/08 01:59:40;;;;;;;3.25;1.80;;;;;;;;;;6303682;22;20008;-86
2023/08/08 02:02:06;;;;;;;6.70;2.03;;;;;;;;;;6275952;22;20015;-86
2023/08/08 02:04:32;;;;;;;4.57;2.58;;;;;;;;;;6303106;22;20201;-86
2023/08/08 02:06:58;;;;;;;3.22;2.35;;;;;;;;;;6275495;22;20054;-86
2023/08/08 02:09:24;;;;;;;5.03;1.98;;;;;;;;;;6301255;22;20430;-85
2023/08/08 02:11:50;;;;;;;3.20;2.20;;;;;;;;;;6275948;22;20026;-85
2023/08/08 02:14:16;;;;;;;5.25;2.88;;;;;;;;;;6303185;22;20011;-86
2023/08/08 02:16:42;;;;;;;3.25;1.80;;;;;;;;;;6302345;22;20440;-86
2023/08/08 02:19:08;;;;;;;4.20;2.30;;;;;;;;;;6275421;22;20050;-86
2023/08/08 02:21:34;;;;;;;5.45;1.95;;;;;;;;;;6303425;22;20011;-85
2023/08/08 02:24:00;;;;;;;2.55;1.92;;;;;;;;;;6302575;22;20013;-85
2023/08/08 02:26:26;;;;;;;2.25;1.73;;;;;;;;;;6301096;22;20015;-86
2023/08/08 02:28:52;;;;;;;4.22;1.98;;;;;;;;;;6275377;22;20015;-86
2023/08/08 02:31:20;;;;;;;4.00;2.05;;;;;;;;;;6303476;22;20043;-85
2023/08/08 02:33:50;;;;;;;7.35;2.72;;;;;;;;;;6303168;22;20078;-86
2023/08/08 02:36:17;;;;;;;4.47;2.00;;;;;;;;;;6300601;22;20485;-86
2023/08/08 02:38:43;;;;;;;4.90;2.10;;;;;;;;;;6274231;22;20060;-86
2023/08/08 02:41:09;;;;;;;3.42;2.05;;;;;;;;;;6301948;22;20444;-86
2023/08/08 02:43:35;;;;;;;2.67;2.00;;;;;;;;;;6303290;22;20325;-86
2023/08/08 02:46:01;;;;;;;6.05;2.60;;;;;;;;;;6302361;22;20022;-86
2023/08/08 02:48:27;;;;;;;4.40;2.17;;;;;;;;;;6275447;22;20025;-86
2023/08/08 02:50:53;;;;;;;3.13;2.10;;;;;;;;;;6274979;22;20046;-86
2023/08/08 02:53:19;;;;;;;4.05;2.08;;;;;;;;;;6302920;22;20008;-86
2023/08/08 02:55:45;;;;;;;2.80;1.88;;;;;;;;;;6304114;22;20015;-86
2023/08/08 02:58:11;;;;;;;4.03;2.13;;;;;;;;;;6301593;22;20011;-86
2023/08/08 03:00:37;;;;;;;5.63;2.40;;;;;;;;;;6304068;22;20011;-85
2023/08/08 03:03:03;;;;;;;3.13;2.58;;;;;;;;;;6302510;22;20021;-87
2023/08/08 03:05:29;;;;;;;4.22;2.60;;;;;;;;;;6302670;22;20023;-87
2023/08/08 03:07:55;;;;;;;6.38;2.63;;;;;;;;;;6301938;22;20026;-86
2023/08/08 03:10:21;;;;;;;4.32;2.75;;;;;;;;;;6276143;22;20344;-93
2023/08/08 03:12:47;;;;;;;4.65;2.65;;;;;;;;;;6303752;22;20015;-85
2023/08/08 03:15:14;;;;;;;3.75;2.42;;;;;;;;;;6272724;22;20011;-86
2023/08/08 03:17:40;;;;;;;5.13;2.65;;;;;;;;;;6274587;22;20019;-87
2023/08/08 03:20:06;;;;;;;4.13;2.45;;;;;;;;;;6302201;22;20007;-86
2023/08/08 03:22:32;;;;;;;5.40;2.60;;;;;;;;;;6300937;22;20463;-85
2023/08/08 03:24:58;;;;;;;4.82;2.80;;;;;;;;;;6300987;22;20016;-86
2023/08/08 03:27:25;;;;;;;4.65;2.70;;;;;;;;;;6302520;22;20510;-86
2023/08/08 03:29:51;;;;;;;5.70;3.25;;;;;;;;;;6301976;22;20011;-86
2023/08/08 03:32:17;;;;;;;5.20;2.90;;;;;;;;;;6274396;22;20023;-85
2023/08/08 03:34:43;;;;;;;4.47;2.90;;;;;;;;;;6302416;22;20502;-86
2023/08/08 03:37:09;;;;;;;4.20;3.08;;;;;;;;;;6300232;22;20015;-86
2023/08/08 03:39:35;;;;;;;3.47;2.42;;;;;;;;;;6302010;22;20023;-86
2023/08/08 03:42:01;;;;;;;4.13;2.55;;;;;;;;;;6273120;22;20086;-86
2023/08/08 03:44:27;;;;;;;5.30;2.50;;;;;;;;;;6300430;22;20015;-86
2023/08/08 03:46:53;;;;;;;5.30;3.00;;;;;;;;;;6275070;22;20306;-86
2023/08/08 03:49:19;;;;;;;5.93;2.85;;;;;;;;;;6302667;22;20384;-86
2023/08/08 03:51:47;;;;;;;4.03;2.42;;;;;;;;;;6302227;22;20011;-86
2023/08/08 03:54:13;;;;;;;4.43;2.60;;;;;;;;;;6273495;22;20061;-86
2023/08/08 03:56:39;;;;;;;3.67;2.38;;;;;;;;;;6274414;22;20470;-86
2023/08/08 03:59:05;;;;;;;4.90;2.40;;;;;;;;;;6302060;22;20037;-86
2023/08/08 04:01:32;;;;;;;3.67;2.22;;;;;;;;;;6274274;22;20029;-86
2023/08/08 04:03:58;;;;;;;4.15;2.47;;;;;;;;;;6273900;22;20317;-87
2023/08/08 04:06:24;;;;;;;3.42;2.20;;;;;;;;;;6274252;22;20073;-86
2023/08/08 04:08:50;;;;;;;5.25;2.80;;;;;;;;;;6301994;22;20011;-86
2023/08/08 04:11:16;;;;;;;5.10;2.25;;;;;;;;;;6274439;22;20444;-87
2023/08/08 04:13:42;;;;;;;5.05;2.00;;;;;;;;;;6302297;22;20015;-87
2023/08/08 04:16:08;;;;;;;3.13;1.70;;;;;;;;;;6301025;22;20081;-87
2023/08/08 04:18:34;;;;;;;4.10;1.92;;;;;;;;;;6274434;22;20011;-86
2023/08/08 04:21:00;;;;;;;3.88;2.17;;;;;;;;;;6301570;22;20078;-86
2023/08/08 04:23:26;;;;;;;1.70;1.42;;;;;;;;;;6301339;22;20018;-86
2023/08/08 04:25:53;;;;;;;3.15;2.03;;;;;;;;;;6301292;22;20008;-87
2023/08/08 04:28:19;;;;;;;2.20;1.50;;;;;;;;;;6301933;22;20022;-87
2023/08/08 04:30:45;;;;;;;2.03;1.48;;;;;;;;;;6274731;22;20064;-87
2023/08/08 04:33:11;;;;;;;3.92;1.80;;;;;;;;;;6300405;22;20452;-86
2023/08/08 04:35:37;;;;;;;3.58;1.80;;;;;;;;;;6273988;22;20014;-86
2023/08/08 04:38:03;;;;;;;3.20;1.60;;;;;;;;;;6302099;22;20064;-86
2023/08/08 04:40:29;;;;;;;1.90;1.30;;;;;;;;;;6301908;22;20019;-86
2023/08/08 04:42:55;;;;;;;2.58;1.42;;;;;;;;;;6273542;22;20007;-86
2023/08/08 04:45:21;;;;;;;1.63;1.13;;;;;;;;;;6300219;22;20035;-92
2023/08/08 04:47:47;;;;;;;2.45;1.00;;;;;;;;;;6273818;22;20463;-90
2023/08/08 04:50:13;;;;;;;3.53;1.30;;;;;;;;;;6300637;22;20439;-91
2023/08/08 04:52:39;;;;;;;5.22;1.08;;;;;;;;;;6303898;22;20042;-90
2023/08/08 04:55:06;;;;;;;2.55;1.38;;;;;;;;;;6303534;22;20015;-90
2023/08/08 04:57:32;;;;;;;5.00;1.23;;;;;;;;;;6305681;22;20011;-90
2023/08/08 05:00:01;;;;;;;4.07;1.05;;;;;;;;;;6304941;22;20034;-92
2023/08/08 05:02:27;;;;;;;4.90;1.67;;;;;;;;;;6278157;22;20368;-96
2023/08/08 05:04:53;;;;;;;2.63;0.90;;;;;;;;;;6305880;22;20011;-88
2023/08/08 05:07:19;;;;;;;1.85;0.93;;;;;;;;;;6302046;22;20081;-85
2023/08/08 05:09:45;;;;;;;2.63;1.00;;;;;;;;;;6302407;22;20483;-84
2023/08/08 05:12:11;;;;;;;2.53;0.90;;;;;;;;;;6303351;22;20077;-84
2023/08/08 05:14:37;;;;;;;0.95;0.70;;;;;;;;;;6302981;22;20431;-84
2023/08/08 05:17:03;;;;;;;2.17;0.82;;;;;;;;;;6302598;22;20050;-84
2023/08/08 05:19:29;;;;;;;2.88;1.45;;;;;;;;;;6302696;22;20015;-84
2023/08/08 05:21:55;;;;;;;3.28;0.95;;;;;;;;;;6275888;22;20058;-84
2023/08/08 05:24:22;;;;;;;4.70;1.92;;;;;;;;;;6303027;22;20011;-85
2023/08/08 05:26:47;;;;;;;3.45;1.00;;;;;;;;;;6275832;22;20011;-84
2023/08/08 05:29:14;;;;;;;1.60;0.90;;;;;;;;;;6275590;22;20033;-84
2023/08/08 05:31:40;;;;;;;1.23;0.73;;;;;;;;;;6303778;22;20069;-82
2023/08/08 05:34:06;;;;;;;1.42;0.75;;;;;;;;;;6302170;22;20007;-85
2023/08/08 05:36:32;;;;;;;2.28;0.82;;;;;;;;;;6301993;22;20015;-91
2023/08/08 05:38:58;;;;;;;3.60;0.85;;;;;;;;;;6302189;22;20072;-90
2023/08/08 05:41:24;;;;;;;4.93;1.08;;;;;;;;;;6274200;22;20051;-88
2023/08/08 05:43:50;;;;;;;2.38;1.15;;;;;;;;;;6275572;22;20403;-89
2023/08/08 05:46:16;;;;;;;2.60;1.17;;;;;;;;;;6275145;22;20022;-90
2023/08/08 05:48:41;;;;;;;3.42;1.10;;;;;;;;;;6304290;22;20011;-91
2023/08/08 05:51:07;;;;;;;4.22;0.90;;;;;;;;;;6302006;22;20305;-88
2023/08/08 05:53:33;;;;;;;1.70;0.70;;;;;;;;;;6301865;22;20018;-86
2023/08/08 05:55:59;;;;;;;1.23;0.57;;;;;;;;;;6301627;22;20015;-87
2023/08/08 05:58:25;;;;;;;2.30;0.93;;;;;;;;;;6303474;22;20019;-85
2023/08/08 06:00:52;;;;;;;2.45;1.10;;;;;;;;;;6275876;22;20090;-90
2023/08/08 06:03:18;;;;;;;3.53;0.90;;;;;;;;;;6300971;22;20011;-86
2023/08/08 06:05:44;;;;;;;3.00;0.80;;;;;;;;;;6303408;22;20094;-89
2023/08/08 06:08:12;;;;;;;1.08;0.70;;;;;;;;;;6301354;22;20047;-87
2023/08/08 06:10:38;;;;;;;1.60;0.70;;;;;;;;;;6301617;22;20016;-88
2023/08/08 06:13:04;;;;;;;1.58;0.68;;;;;;;;;;6301111;22;20273;-86
2023/08/08 06:15:30;;;;;;;3.22;1.02;;;;;;;;;;6275512;22;20069;-87
2023/08/08 06:17:56;;;;;;;2.80;0.85;;;;;;;;;;6299589;22;20007;-87
2023/08/08 06:20:22;;;;;;;4.47;0.90;;;;;;;;;;6275576;22;20015;-83
2023/08/08 06:22:49;;;;;;;2.35;0.85;;;;;;;;;;6303925;22;20030;-83
2023/08/08 06:25:15;;;;;;;4.20;0.90;;;;;;;;;;6302878;22;20038;-84
2023/08/08 06:27:41;;;;;;;2.40;0.75;;;;;;;;;;6303370;22;20328;-88
2023/08/08 06:30:08;;;;;;;3.53;1.10;;;;;;;;;;6273515;22;20445;-82
2023/08/08 06:32:34;;;;;;;0.85;0.60;;;;;;;;;;6273600;22;20445;-84
2023/08/08 06:35:00;;;;;;;2.42;0.68;;;;;;;;;;6274200;22;20015;-83
2023/08/08 06:37:26;;;;;;;3.15;0.80;;;;;;;;;;6302518;22;20011;-82
2023/08/08 06:39:52;;;;;;;4.68;0.98;;;;;;;;;;6272830;22;20382;-82
2023/08/08 06:42:18;;;;;;;1.67;0.80;;;;;;;;;;6274147;22;20304;-84
2023/08/08 06:44:45;;;;;;;1.83;0.55;;;;;;;;;;6302815;22;20219;-82
2023/08/08 06:47:11;;;;;;;3.78;0.77;;;;;;;;;;6301402;22;20019;-82
2023/08/08 06:49:38;;;;;;;2.22;0.82;;;;;;;;;;6302563;22;20030;-82
2023/08/08 06:52:05;;;;;;;2.13;0.70;;;;;;;;;;6301214;22;20436;-83
2023/08/08 06:54:31;;;;;;;1.58;0.60;;;;;;;;;;6303059;22;20382;-81
2023/08/08 06:56:57;;;;;;;2.92;0.80;;;;;;;;;;6301563;22;20012;-80
2023/08/08 06:59:24;;;;;;;5.28;0.80;;;;;;;;;;6302488;22;20018;-80
2023/08/08 07:01:50;;;;;;;2.47;1.20;;;;;;;;;;6302344;22;20015;-85
2023/08/08 07:04:17;;;;;;;4.43;1.20;;;;;;;;;;6301569;22;20011;-82
2023/08/08 07:06:44;;;;;;;5.50;0.90;;;;;;;;;;6301270;22;20015;-87
2023/08/08 07:09:10;;;;;;;2.75;1.33;;;;;;;;;;6302901;22;20046;-89
2023/08/08 07:11:36;;;;;;;1.30;0.60;;;;;;;;;;6302620;22;20068;-86
2023/08/08 07:14:03;;;;;;;2.00;0.80;;;;;;;;;;6273739;22;20086;-88
2023/08/08 07:16:29;;;;;;;2.50;0.70;;;;;;;;;;6302826;22;20433;-86
2023/08/08 07:18:55;;;;;;;3.35;0.90;;;;;;;;;;6304014;22;20015;-93
2023/08/08 07:21:21;;;;;;;3.97;0.68;;;;;;;;;;6275206;22;20114;-92
2023/08/08 07:23:47;;;;;;;4.38;1.15;;;;;;;;;;6305546;22;20007;-88
2023/08/08 07:26:13;;;;;;;1.85;0.40;;;;;;;;;;6278053;22;20022;-91
2023/08/08 07:28:39;;;;;;;2.00;0.82;;;;;;;;;;6305617;22;20501;-90
2023/08/08 07:31:05;;;;;;;0.95;0.40;;;;;;;;;;6304716;22;20078;-90
2023/08/08 07:33:31;;;;;;;5.90;0.70;;;;;;;;;;6304766;22;20472;-94
2023/08/08 07:35:57;;;;;;;2.60;0.82;;;;;;;;;;6275475;22;20011;-87
2023/08/08 07:38:23;;;;;;;2.58;0.80;;;;;;;;;;6303146;22;20073;-89
2023/08/08 07:40:49;;;;;;;1.70;0.75;;;;;;;;;;6303320;22;20016;-87
2023/08/08 07:43:15;;;;;;;1.42;0.60;;;;;;;;;;6305775;22;20069;-90
2023/08/08 07:45:42;;;;;;;1.67;0.70;;;;;;;;;;6277961;22;20011;-87
2023/08/08 07:48:08;;;;;;;3.67;0.73;;;;;;;;;;6304911;22;20064;-92
2023/08/08 07:50:34;;;;;;;1.42;0.40;;;;;;;;;;6276618;22;20023;-90
2023/08/08 07:53:00;;;;;;;2.55;0.90;;;;;;;;;;6280200;22;20015;-93
2023/08/08 07:55:26;;;;;;;4.47;0.90;;;;;;;;;;6303601;22;20015;-92
2023/08/08 07:57:52;;;;;;;1.13;0.55;;;;;;;;;;6304262;22;20013;-92
2023/08/08 08:00:18;;;;;;;2.08;0.55;;;;;;;;;;6303511;22;20064;-90
2023/08/08 08:02:45;;;;;;;1.75;0.50;;;;;;;;;;6303249;22;20022;-90
2023/08/08 08:05:11;;;;;;;0.68;0.40;;;;;;;;;;6277732;22;20011;-93
2023/08/08 08:07:38;;;;;;;1.70;0.70;;;;;;;;;;6277809;22;20015;-94
2023/08/08 08:10:05;;;;;;;0.93;0.50;;;;;;;;;;6276969;22;20018;-89
2023/08/08 08:12:31;;;;;;;1.83;0.98;;;;;;;;;;6303794;22;20302;-87
2023/08/08 08:14:58;;;;;;;1.85;0.57;;;;;;;;;;6303280;22;20041;-86
2023/08/08 08:17:24;;;;;;;3.67;0.70;;;;;;;;;;6273953;22;20410;-87
2023/08/08 08:19:51;;;;;;;0.95;0.47;;;;;;;;;;6304046;22;20152;-90
2023/08/08 08:22:17;;;;;;;1.65;0.47;;;;;;;;;;6302448;22;20018;-91
2023/08/08 08:24:43;;;;;;;1.88;0.50;;;;;;;;;;6303271;22;20015;-86
2023/08/08 08:27:09;;;;;;;0.98;0.68;;;;;;;;;;6304372;22;20515;-90
2023/08/08 08:29:35;;;;;;;1.27;0.57;;;;;;;;;;6305937;22;20364;-85
2023/08/08 08:32:01;;;;;;;2.30;0.68;;;;;;;;;;6303452;22;20049;-87
2023/08/08 08:34:27;;;;;;;2.38;0.75;;;;;;;;;;6277754;22;20015;-90
2023/08/08 08:36:53;;;;;;;3.33;1.20;;;;;;;;;;6305136;22;20021;-89
2023/08/08 08:39:19;;;;;;;1.77;0.63;;;;;;;;;;6277567;22;20031;-84
2023/08/08 08:41:48;;;;;;;1.15;0.40;;;;;;;;;;6305999;22;20403;-87
2023/08/08 08:44:14;;;;;;;1.35;0.60;;;;;;;;;;6304285;22;20734;-87
2023/08/08 08:46:41;;;;;;;2.10;0.50;;;;;;;;;;6277804;22;20027;-86
2023/08/08 08:49:10;;;;;;;2.08;0.65;;;;;;;;;;6303849;22;20309;-86
2023/08/08 08:51:37;;;;;;;1.98;0.60;;;;;;;;;;6276766;22;20015;-86
2023/08/08 08:54:03;;;;;;;1.52;0.40;;;;;;;;;;6303622;22;20020;-87
2023/08/08 08:56:29;;;;;;;1.70;0.50;;;;;;;;;;6304801;22;20094;-84
2023/08/08 08:58:56;;;;;;;4.57;1.08;;;;;;;;;;6304738;22;20018;-91
2023/08/08 09:01:22;;;;;;;3.05;0.90;;;;;;;;;;6304271;22;20007;-88
2023/08/08 09:03:48;;;;;;;2.35;0.65;;;;;;;;;;6304057;22;20023;-89
2023/08/08 09:06:16;;;;;;;4.13;0.80;;;;;;;;;;6303921;22;20058;-86
2023/08/08 09:08:42;;;;;;;2.47;0.80;;;;;;;;;;6305200;22;20308;-86
2023/08/08 09:11:08;;;;;;;1.92;0.80;;;;;;;;;;6303062;22;20035;-84
2023/08/08 09:13:40;;;;;;;2.22;0.52;;;;;;;;;;6277426;22;20019;-86
2023/08/08 09:16:08;;;;;;;2.22;0.70;;;;;;;;;;6304875;22;20011;-90
2023/08/08 09:18:34;;;;;;;1.77;0.50;;;;;;;;;;6305134;22;20030;-87
2023/08/08 09:21:00;;;;;;;1.38;0.35;;;;;;;;;;6305790;22;20011;-89
2023/08/08 09:23:26;;;;;;;1.70;0.60;;;;;;;;;;6304637;22;20029;-88
2023/08/08 09:25:52;;;;;;;0.50;0.30;;;;;;;;;;6303732;22;20060;-91
2023/08/08 09:28:18;;;;;;;2.80;0.88;;;;;;;;;;6276454;22;20019;-87
2023/08/08 09:30:44;;;;;;;1.67;0.50;;;;;;;;;;6304559;22;20068;-85
2023/08/08 09:33:12;;;;;;;0.95;0.57;;;;;;;;;;6303598;22;20015;-89
2023/08/08 09:35:41;;;;;;;3.05;0.60;;;;;;;;;;6278866;22;20023;-90
2023/08/08 09:38:07;;;;;;;3.15;0.63;;;;;;;;;;6280226;22;20655;-86
2023/08/08 09:40:33;;;;;;;1.25;0.60;;;;;;;;;;6303987;22;20019;-86
2023/08/08 09:42:59;;;;;;;1.17;0.55;;;;;;;;;;6304553;22;20440;-83
2023/08/08 09:45:26;;;;;;;2.30;0.55;;;;;;;;;;6251997;22;20042;-87
2023/08/08 09:47:52;;;;;;;2.33;0.80;;;;;;;;;;6304614;22;20007;-86
2023/08/08 09:50:18;;;;;;;1.10;0.60;;;;;;;;;;6301210;22;20011;-84
2023/08/08 09:52:44;;;;;;;1.25;0.60;;;;;;;;;;6251200;22;20128;-85
2023/08/08 09:55:12;;;;;;;1.23;0.52;;;;;;;;;;6302340;22;20016;-85
2023/08/08 09:57:41;;;;;;;2.17;0.90;;;;;;;;;;6303145;22;20054;-83
2023/08/08 10:00:15;;;;;;;2.30;0.63;;;;;;;;;;6301617;22;20029;-86
2023/08/08 10:02:41;;;;;;;4.03;0.80;;;;;;;;;;6304936;22;20081;-84
2023/08/08 10:05:07;;;;;;;1.13;0.50;;;;;;;;;;6303035;22;20371;-91
2023/08/08 10:07:34;;;;;;;2.20;0.77;;;;;;;;;;6304992;22;20019;-85
2023/08/08 10:10:00;;;;;;;0.98;0.63;;;;;;;;;;6302745;22;20017;-85
2023/08/08 10:12:26;;;;;;;1.98;0.45;;;;;;;;;;6275434;22;20382;-90
2023/08/08 10:14:52;;;;;;;2.85;0.90;;;;;;;;;;6276683;22;20345;-85
2023/08/08 10:17:19;;;;;;;2.17;0.60;;;;;;;;;;6303330;22;20020;-85
2023/08/08 10:19:57;;;;;;;2.72;1.13;;;;;;;;;;6304784;22;20318;-86
2023/08/08 10:22:24;;;;;;;2.95;0.60;;;;;;;;;;6303412;22;20030;-86
2023/08/08 10:24:53;;;;;;;2.53;0.82;;;;;;;;;;6303772;22;20007;-87
2023/08/08 10:27:31;;;;;;;0.90;0.38;;;;;;;;;;6303292;22;20096;-86
2023/08/08 10:30:02;;;;;;;3.20;0.85;;;;;;;;;;6303473;22;20015;-90
2023/08/08 10:32:28;;;;;;;5.40;0.85;;;;;;;;;;6302899;22;20387;-90
2023/08/08 10:35:00;;;;;;;2.05;0.60;;;;;;;;;;6301927;22;20051;-83
2023/08/08 10:37:27;;;;;;;1.95;0.60;;;;;;;;;;6272967;22;20090;-88
2023/08/08 10:39:58;;;;;;;4.88;0.90;;;;;;;;;;6302106;22;20400;-82
2023/08/08 10:42:25;;;;;;;1.38;0.52;;;;;;;;;;6301803;22;20019;-83
2023/08/08 10:44:55;;;;;;;1.92;0.57;;;;;;;;;;6275900;22;20029;-86
2023/08/08 10:47:22;;;;;;;1.15;0.80;;;;;;;;;;6303452;22;20024;-85
2023/08/08 10:49:56;;;;;;;1.60;0.55;;;;;;;;;;6303454;22;20014;-87
2023/08/08 10:52:23;;;;;;;1.45;0.75;;;;;;;;;;6300896;22;20022;-90
2023/08/08 10:54:54;;;;;;;2.13;0.77;;;;;;;;;;6302702;22;20050;-84
2023/08/08 10:57:21;;;;;;;2.85;0.88;;;;;;;;;;6303010;22;20101;-82
2023/08/08 10:59:47;;;;;;;2.88;0.80;;;;;;;;;;6275910;22;20011;-88
2023/08/08 11:02:14;;;;;;;2.65;0.80;;;;;;;;;;6302448;22;20019;-85
2023/08/08 11:04:41;;;;;;;2.78;0.70;;;;;;;;;;6274427;22;20015;-85
2023/08/08 11:07:07;;;;;;;2.95;0.68;;;;;;;;;;6274469;22;20026;-84
2023/08/08 11:09:33;;;;;;;2.50;0.60;;;;;;;;;;6302101;22;20019;-85
2023/08/08 11:11:59;;;;;;;1.25;0.60;;;;;;;;;;6301049;22;20014;-84
2023/08/08 11:14:25;;;;;;;0.80;0.50;;;;;;;;;;6302740;22;20015;-86
2023/08/08 11:16:52;;;;;;;1.65;0.70;;;;;;;;;;6303244;22;20011;-90
2023/08/08 11:19:19;;;;;;;4.90;0.80;;;;;;;;;;6276745;22;20011;-86
2023/08/08 11:21:45;;;;;;;2.13;0.70;;;;;;;;;;6301624;22;20019;-86
2023/08/08 11:24:12;;;;;;;1.83;1.33;;;;;;;;;;6247187;22;20015;-85
2023/08/08 11:26:38;;;;;;;1.67;0.60;;;;;;;;;;6300487;22;20011;-86
2023/08/08 11:29:08;;;;;;;3.55;0.95;;;;;;;;;;6271890;22;20023;-88
2023/08/08 11:31:35;;;;;;;1.25;0.60;;;;;;;;;;6302800;22;20022;-85
2023/08/08 11:34:01;;;;;;;4.57;1.08;;;;;;;;;;6299363;22;20019;-88
2023/08/08 11:36:30;;;;;;;1.38;0.75;;;;;;;;;;6299987;22;20057;-84
2023/08/08 11:38:57;;;;;;;2.97;1.00;;;;;;;;;;6302325;22;20038;-86
2023/08/08 11:41:25;;;;;;;1.85;0.77;;;;;;;;;;6275220;22;20021;-85
2023/08/08 11:43:52;;;;;;;2.53;0.75;;;;;;;;;;6303244;22;20065;-85
2023/08/08 11:46:18;;;;;;;2.08;0.47;;;;;;;;;;6302719;22;20022;-89
2023/08/08 11:48:47;;;;;;;2.90;0.47;;;;;;;;;;6303375;22;20015;-86
2023/08/08 11:51:14;;;;;;;5.50;0.80;;;;;;;;;;6300941;22;20014;-85
2023/08/08 11:53:49;;;;;;;1.42;0.70;;;;;;;;;;6303870;22;20413;-86
2023/08/08 11:56:15;;;;;;;2.45;0.70;;;;;;;;;;6302601;22;20015;-84
2023/08/08 11:58:41;;;;;;;1.83;0.88;;;;;;;;;;6302682;22;20119;-85
2023/08/08 12:01:08;;;;;;;0.50;0.45;;;;;;;;;;6300813;22;20371;-85
2023/08/08 12:03:38;;;;;;;4.93;0.88;;;;;;;;;;6275121;22;20046;-86
2023/08/08 12:06:12;;;;;;;3.45;0.68;;;;;;;;;;6301486;22;20371;-89
2023/08/08 12:08:38;;;;;;;4.95;0.75;;;;;;;;;;6302536;22;20015;-86
2023/08/08 12:11:05;;;;;;;2.95;0.93;;;;;;;;;;6301807;22;20015;-84
2023/08/08 12:13:32;;;;;;;4.00;0.90;;;;;;;;;;6302541;22;20019;-85
2023/08/08 12:15:59;;;;;;;0.60;0.32;;;;;;;;;;6302157;22;20011;-90
2023/08/08 12:18:25;;;;;;;2.20;0.65;;;;;;;;;;6302072;22;20007;-85
2023/08/08 12:20:51;;;;;;;3.28;1.10;;;;;;;;;;6302113;22;20387;-86
2023/08/08 12:23:17;;;;;;;2.15;0.47;;;;;;;;;;6273066;22;20012;-89
2023/08/08 12:25:43;;;;;;;2.22;0.60;;;;;;;;;;6274795;22;20016;-87
2023/08/08 12:28:09;;;;;;;3.47;1.80;;;;;;;;;;6301544;22;20096;-86
2023/08/08 12:30:35;;;;;;;1.95;0.50;;;;;;;;;;6303002;22;20132;-85
2023/08/08 12:33:01;;;;;;;3.72;0.68;;;;;;;;;;6273154;22;20016;-89
2023/08/08 12:35:27;;;;;;;3.40;0.60;;;;;;;;;;6301879;22;20008;-86
2023/08/08 12:37:53;;;;;;;1.05;0.50;;;;;;;;;;6304174;22;20007;-90
2023/08/08 12:40:20;;;;;;;2.58;0.68;;;;;;;;;;6303067;22;20030;-87
2023/08/08 12:42:46;;;;;;;1.92;0.70;;;;;;;;;;6275562;22;20086;-90
2023/08/08 12:45:12;;;;;;;2.25;0.68;;;;;;;;;;6301319;22;20011;-88
2023/08/08 12:47:38;;;;;;;0.98;0.65;;;;;;;;;;6302275;22;20023;-84
2023/08/08 12:50:07;;;;;;;4.82;0.75;;;;;;;;;;6301633;22;20065;-87
2023/08/08 12:52:34;;;;;;;0.75;0.50;;;;;;;;;;6276690;22;20019;-87
2023/08/08 12:55:00;;;;;;;3.05;0.60;;;;;;;;;;6303184;22;20015;-87
2023/08/08 12:57:26;;;;;;;1.52;0.52;;;;;;;;;;6302406;22;20404;-84
2023/08/08 12:59:52;;;;;;;0.55;0.50;;;;;;;;;;6303440;22;20440;-86
2023/08/08 13:02:18;;;;;;;2.05;0.52;;;;;;;;;;6303722;22;20018;-85
2023/08/08 13:04:44;;;;;;;2.65;0.50;;;;;;;;;;6276558;22;20030;-85
2023/08/08 13:07:10;;;;;;;1.17;0.50;;;;;;;;;;6274540;22;20503;-86
2023/08/08 13:09:37;;;;;;;1.95;0.38;;;;;;;;;;6303598;22;20022;-87
2023/08/08 13:12:03;;;;;;;1.95;0.40;;;;;;;;;;6275004;22;20022;-87
2023/08/08 13:14:29;;;;;;;2.25;0.70;;;;;;;;;;6278463;22;20055;-90
2023/08/08 13:16:55;;;;;;;0.75;0.40;;;;;;;;;;6303883;22;20018;-87
2023/08/08 13:19:24;;;;;;;1.13;0.55;;;;;;;;;;6305082;22;20007;-88
2023/08/08 13:21:51;;;;;;;2.80;0.50;;;;;;;;;;6304372;22;20046;-92
2023/08/08 13:24:17;;;;;;;2.95;0.30;;;;;;;;;;6276745;22;20086;-89
2023/08/08 13:26:43;;;;;;;1.60;0.50;;;;;;;;;;6278603;22;20508;-87
2023/08/08 13:29:09;;;;;;;2.25;0.80;;;;;;;;;;6304246;22;20019;-92
2023/08/08 13:31:35;;;;;;;3.42;1.05;;;;;;;;;;6304556;22;20023;-90
2023/08/08 13:34:01;;;;;;;1.83;1.02;;;;;;;;;;6304622;22;20015;-89
2023/08/08 13:36:27;;;;;;;3.33;0.88;;;;;;;;;;6304031;22;20136;-87
2023/08/08 13:38:53;;;;;;;2.00;0.63;;;;;;;;;;6304712;22;20016;-87
2023/08/08 13:41:19;;;;;;;2.00;1.25;;;;;;;;;;6277721;22;20019;-90
2023/08/08 13:43:45;;;;;;;1.10;0.68;;;;;;;;;;6279539;22;20015;-92
2023/08/08 13:46:11;;;;;;;0.70;0.50;;;;;;;;;;6305094;22;20007;-88
2023/08/08 13:48:37;;;;;;;1.95;0.98;;;;;;;;;;6308657;22;20012;-92
2023/08/08 13:51:03;;;;;;;2.67;0.30;;;;;;;;;;6306065;22;20018;-92
2023/08/08 13:53:29;;;;;;;1.23;0.50;;;;;;;;;;6307852;22;20078;-92
2023/08/08 13:55:56;;;;;;;3.10;0.70;;;;;;;;;;6307551;22;20019;-93
2023/08/08 13:58:22;;;;;;;2.33;1.10;;;;;;;;;;6304808;22;20333;-92
2023/08/08 14:00:51;;;;;;;1.35;0.90;;;;;;;;;;6305056;22;20019;-89
2023/08/08 14:03:17;;;;;;;1.55;0.80;;;;;;;;;;6306007;22;20034;-91
2023/08/08 14:05:44;;;;;;;2.20;0.60;;;;;;;;;;6277691;22;20085;-88
2023/08/08 14:08:10;;;;;;;2.15;0.90;;;;;;;;;;6302304;22;20015;-86
2023/08/08 14:10:36;;;;;;;2.53;0.70;;;;;;;;;;6302973;22;20019;-86
2023/08/08 14:13:02;;;;;;;2.28;0.70;;;;;;;;;;6301172;22;20019;-89
2023/08/08 14:15:29;;;;;;;2.45;1.33;;;;;;;;;;6278503;22;20044;-94
2023/08/08 14:17:55;;;;;;;0.80;0.80;;;;;;;;;;6276783;22;20008;-89
2023/08/08 14:20:21;;;;;;;2.22;0.93;;;;;;;;;;6304332;22;20486;-91
2023/08/08 14:22:47;;;;;;;3.67;1.40;;;;;;;;;;6304550;22;20043;-87
2023/08/08 14:25:13;;;;;;;2.38;0.80;;;;;;;;;;6303406;22;20065;-84
2023/08/08 14:27:40;;;;;;;2.65;0.80;;;;;;;;;;6303606;22;20094;-87
2023/08/08 14:30:06;;;;;;;1.88;1.30;;;;;;;;;;6304546;22;20039;-90
2023/08/08 14:32:32;;;;;;;2.25;0.80;;;;;;;;;;6306925;22;20039;-92
2023/08/08 14:34:59;;;;;;;2.35;1.00;;;;;;;;;;6303416;22;20154;-89
2023/08/08 14:37:25;;;;;;;0.93;0.60;;;;;;;;;;6304029;22;20011;-88
2023/08/08 14:39:51;;;;;;;1.60;0.68;;;;;;;;;;6303439;22;20015;-92